Time;durP1;ratioP1;P1;durP2;ratioP2;P2;SDS_P1;SDS_P2;PMS_P1;PMS_P2;Temp;Humidity;BMP_temperature;BMP_pressure;BME280_temperature;BME280_humidity;BME280_pressure;Samples;Min_cycle;Max_cycle;Signal;HPM_P1;HPM_P2
2021/05/29 00:02:12;;;;;;;2.83;2.17;;;10.50;99.90;;;;;;5004182;28;20076;-55
2021/05/29 00:04:39;;;;;;;5.07;2.47;;;10.40;99.90;;;;;;5009073;28;20034;-54
2021/05/29 00:07:04;;;;;;;5.78;2.60;;;10.30;99.90;;;;;;5009847;28;20026;-57
2021/05/29 00:09:30;;;;;;;7.53;2.35;;;10.20;99.90;;;;;;5007357;28;20541;-57
2021/05/29 00:11:56;;;;;;;5.93;2.80;;;10.00;99.90;;;;;;5010464;28;20104;-59
2021/05/29 00:14:22;;;;;;;4.20;2.42;;;9.80;99.90;;;;;;5007044;28;20028;-58
2021/05/29 00:16:48;;;;;;;7.75;2.45;;;9.60;99.90;;;;;;5007592;28;20030;-58
2021/05/29 00:19:14;;;;;;;4.80;2.58;;;9.50;99.90;;;;;;5001684;28;20034;-58
2021/05/29 00:21:39;;;;;;;6.10;2.95;;;9.40;99.90;;;;;;4996852;28;20034;-56
2021/05/29 00:24:05;;;;;;;5.60;2.85;;;9.40;99.90;;;;;;5005130;28;20030;-58
2021/05/29 00:26:31;;;;;;;8.20;3.40;;;9.40;99.90;;;;;;4997438;28;20056;-57
2021/05/29 00:28:57;;;;;;;7.90;2.88;;;9.40;99.90;;;;;;5001476;28;20574;-59
2021/05/29 00:31:22;;;;;;;4.55;3.17;;;9.30;99.90;;;;;;5009297;28;20026;-55
2021/05/29 00:33:48;;;;;;;4.85;3.20;;;9.40;99.90;;;;;;5010083;28;20037;-56
2021/05/29 00:36:13;;;;;;;7.72;2.97;;;9.40;99.90;;;;;;5009911;28;20097;-57
2021/05/29 00:38:39;;;;;;;5.18;2.63;;;9.40;99.90;;;;;;5009936;28;20133;-57
2021/05/29 00:41:08;;;;;;;5.05;2.83;;;9.40;99.90;;;;;;5009842;28;20030;-55
2021/05/29 00:43:34;;;;;;;7.78;3.00;;;9.40;99.90;;;;;;5008539;28;20058;-57
2021/05/29 00:46:00;;;;;;;6.82;3.00;;;9.40;99.90;;;;;;5003348;28;20022;-56
2021/05/29 00:48:26;;;;;;;5.40;3.40;;;9.40;99.90;;;;;;5010101;28;20057;-56
2021/05/29 00:50:59;;;;;;;7.18;3.15;;;9.30;99.90;;;;;;5009718;28;20555;-58
2021/05/29 00:53:26;;;;;;;4.78;3.20;;;9.20;99.90;;;;;;5008349;28;20022;-57
2021/05/29 00:55:52;;;;;;;5.80;3.85;;;9.20;99.90;;;;;;5012260;28;20073;-58
2021/05/29 00:58:17;;;;;;;6.40;4.10;;;9.20;99.90;;;;;;5012713;28;20476;-56
2021/05/29 01:00:43;;;;;;;4.80;3.42;;;9.20;99.90;;;;;;5010906;28;20034;-57
2021/05/29 01:03:09;;;;;;;10.38;3.83;;;9.20;99.90;;;;;;5011283;28;20494;-54
2021/05/29 01:05:36;;;;;;;10.35;3.53;;;9.10;99.90;;;;;;5012612;28;20439;-55
2021/05/29 01:08:01;;;;;;;6.03;3.88;;;9.10;99.90;;;;;;5011035;28;20038;-57
2021/05/29 01:10:27;;;;;;;8.90;3.83;;;9.00;99.90;;;;;;5014138;28;20029;-59
2021/05/29 01:12:54;;;;;;;14.65;3.60;;;8.90;99.90;;;;;;5013059;28;20037;-54
2021/05/29 01:15:21;;;;;;;8.75;3.35;;;8.90;99.90;;;;;;5014239;28;20165;-57
2021/05/29 01:17:47;;;;;;;7.68;4.35;;;8.80;99.90;;;;;;5013636;28;20036;-56
2021/05/29 01:20:13;;;;;;;6.07;3.78;;;8.70;99.90;;;;;;5007833;28;20034;-57
2021/05/29 01:22:51;;;;;;;6.13;3.70;;;8.70;99.90;;;;;;5007059;28;20034;-55
2021/05/29 01:25:29;;;;;;;6.93;3.75;;;8.60;99.90;;;;;;5008759;28;20113;-58
2021/05/29 01:28:00;;;;;;;7.55;4.00;;;8.60;99.90;;;;;;5009213;28;20049;-57
2021/05/29 01:30:27;;;;;;;9.85;4.22;;;8.50;99.90;;;;;;5005115;28;20033;-58
2021/05/29 01:32:54;;;;;;;6.40;3.90;;;8.50;99.90;;;;;;5009753;28;20045;-57
2021/05/29 01:35:21;;;;;;;7.60;3.40;;;8.50;99.90;;;;;;5014324;28;20028;-56
2021/05/29 01:37:48;;;;;;;6.88;4.03;;;8.40;99.90;;;;;;5012435;28;20022;-57
2021/05/29 01:40:14;;;;;;;8.73;3.72;;;8.40;99.90;;;;;;5009790;28;20037;-60
2021/05/29 01:42:40;;;;;;;10.38;6.13;;;8.40;99.90;;;;;;5013529;28;20021;-60
2021/05/29 01:45:08;;;;;;;6.25;3.80;;;8.30;99.90;;;;;;5000422;28;20026;-56
2021/05/29 01:47:36;;;;;;;9.07;4.45;;;8.30;99.90;;;;;;5005117;28;20030;-57
2021/05/29 01:50:04;;;;;;;8.77;3.97;;;8.20;99.90;;;;;;4989365;28;20535;-59
2021/05/29 01:52:59;;;;;;;6.22;3.42;;;8.20;99.90;;;;;;5013407;28;20454;-58
2021/05/29 01:55:27;;;;;;;8.75;4.40;;;8.20;99.90;;;;;;5009801;28;20033;-58
2021/05/29 01:57:54;;;;;;;10.60;4.47;;;8.20;99.90;;;;;;5012421;28;20041;-57
2021/05/29 02:00:22;;;;;;;7.90;4.05;;;8.20;99.90;;;;;;5012891;28;20045;-56
2021/05/29 02:02:47;;;;;;;10.65;4.35;;;8.10;99.90;;;;;;5012719;28;20048;-58
2021/05/29 02:05:15;;;;;;;8.90;4.30;;;8.10;99.90;;;;;;5003247;28;20499;-58
2021/05/29 02:07:41;;;;;;;6.97;3.80;;;8.10;99.90;;;;;;5006058;28;20030;-56
2021/05/29 02:10:07;;;;;;;6.90;4.07;;;8.00;99.90;;;;;;5011937;28;20403;-57
2021/05/29 02:12:42;;;;;;;5.95;3.70;;;8.00;99.90;;;;;;5010183;28;20472;-58
2021/05/29 02:15:11;;;;;;;5.53;3.60;;;8.00;99.90;;;;;;5012280;28;20467;-56
2021/05/29 02:17:37;;;;;;;4.68;3.53;;;8.10;99.90;;;;;;5011739;28;20117;-58
2021/05/29 02:20:05;;;;;;;5.65;3.70;;;8.10;99.90;;;;;;5011878;28;20149;-58
2021/05/29 02:22:30;;;;;;;6.15;3.72;;;8.10;99.90;;;;;;5016350;28;20040;-57
2021/05/29 02:24:56;;;;;;;6.80;3.88;;;8.10;99.90;;;;;;5012518;28;20476;-58
2021/05/29 02:27:21;;;;;;;13.75;4.72;;;8.10;99.90;;;;;;5011623;28;20077;-56
2021/05/29 02:29:47;;;;;;;8.82;4.07;;;8.10;99.90;;;;;;5012519;28;20038;-58
2021/05/29 02:32:13;;;;;;;5.18;3.70;;;8.10;99.90;;;;;;5010536;28;20030;-56
2021/05/29 02:34:38;;;;;;;6.03;3.88;;;8.00;99.90;;;;;;5002689;28;20033;-57
2021/05/29 02:37:04;;;;;;;12.15;4.38;;;8.00;99.90;;;;;;5013617;28;20038;-58
2021/05/29 02:39:30;;;;;;;6.10;4.00;;;8.00;99.90;;;;;;5004567;28;20072;-58
2021/05/29 02:41:55;;;;;;;8.15;4.47;;;8.00;99.90;;;;;;5019952;28;20044;-59
2021/05/29 02:44:21;;;;;;;9.23;4.43;;;7.90;99.90;;;;;;5018356;28;20040;-57
2021/05/29 02:46:46;;;;;;;8.48;4.20;;;7.90;99.90;;;;;;5008892;28;20029;-53
2021/05/29 02:49:12;;;;;;;7.53;4.10;;;7.90;99.90;;;;;;5011382;28;20029;-57
2021/05/29 02:51:37;;;;;;;6.25;4.20;;;7.80;99.90;;;;;;5011858;28;20079;-54
2021/05/29 02:54:03;;;;;;;5.20;4.00;;;7.80;99.90;;;;;;5010936;28;20113;-56
2021/05/29 02:56:29;;;;;;;8.90;4.13;;;7.80;99.90;;;;;;5000206;28;20395;-54
2021/05/29 02:58:54;;;;;;;7.00;4.07;;;7.80;99.90;;;;;;5012170;28;20037;-58
2021/05/29 03:01:20;;;;;;;7.05;4.20;;;7.80;99.90;;;;;;5012441;28;20375;-57
2021/05/29 03:03:45;;;;;;;8.80;4.57;;;7.80;99.90;;;;;;5007529;28;20045;-54
2021/05/29 03:06:11;;;;;;;8.50;4.03;;;7.90;99.90;;;;;;5012367;28;20034;-54
2021/05/29 03:08:36;;;;;;;7.32;4.40;;;7.90;99.90;;;;;;5008788;28;20034;-57
2021/05/29 03:11:02;;;;;;;5.65;3.60;;;7.90;99.90;;;;;;4996736;28;20065;-59
2021/05/29 03:13:28;;;;;;;11.43;4.40;;;7.90;99.90;;;;;;5011854;28;20491;-55
2021/05/29 03:15:53;;;;;;;6.72;3.92;;;7.90;99.90;;;;;;5012317;28;20095;-57
2021/05/29 03:18:19;;;;;;;6.68;4.22;;;7.80;99.90;;;;;;5011501;28;20128;-55
2021/05/29 03:20:45;;;;;;;5.68;4.03;;;7.80;99.90;;;;;;5007113;28;20036;-57
2021/05/29 03:23:10;;;;;;;6.80;4.32;;;7.70;99.90;;;;;;5010876;28;20030;-55
2021/05/29 03:25:36;;;;;;;10.15;4.43;;;7.70;99.90;;;;;;5010841;28;20036;-55
2021/05/29 03:28:02;;;;;;;7.00;4.32;;;7.60;99.90;;;;;;5008809;28;20505;-58
2021/05/29 03:30:29;;;;;;;12.18;5.20;;;7.60;99.90;;;;;;5010592;28;20109;-57
2021/05/29 03:32:56;;;;;;;10.88;4.15;;;7.60;99.90;;;;;;5011487;28;20097;-56
2021/05/29 03:35:22;;;;;;;6.38;4.28;;;7.50;99.90;;;;;;5010854;28;20022;-55
2021/05/29 03:37:48;;;;;;;11.90;4.53;;;7.50;99.90;;;;;;5008656;28;20113;-55
2021/05/29 03:40:15;;;;;;;8.02;4.53;;;7.40;99.90;;;;;;5010593;28;20450;-55
2021/05/29 03:42:42;;;;;;;8.23;4.63;;;7.40;99.90;;;;;;5011143;28;20032;-56
2021/05/29 03:45:12;;;;;;;8.70;4.35;;;7.40;99.90;;;;;;5010960;28;20435;-55
2021/05/29 03:47:38;;;;;;;6.18;4.13;;;7.40;99.90;;;;;;5007853;28;20022;-56
2021/05/29 03:50:05;;;;;;;7.15;5.32;;;7.40;99.90;;;;;;5010473;28;20076;-57
2021/05/29 03:52:31;;;;;;;8.18;4.80;;;7.30;99.90;;;;;;5002185;28;20594;-58
2021/05/29 03:54:57;;;;;;;7.18;3.95;;;7.40;99.90;;;;;;5003593;28;20026;-55
2021/05/29 03:57:22;;;;;;;11.25;4.30;;;7.40;99.90;;;;;;5010695;28;20041;-54
2021/05/29 03:59:48;;;;;;;8.63;4.15;;;7.40;99.90;;;;;;5009577;28;20053;-57
2021/05/29 04:02:14;;;;;;;7.43;4.40;;;7.40;99.90;;;;;;5007353;28;20526;-57
2021/05/29 04:04:39;;;;;;;11.52;4.57;;;7.50;99.90;;;;;;5010153;28;20041;-57
2021/05/29 04:07:05;;;;;;;7.88;4.65;;;7.40;99.90;;;;;;5005316;28;20030;-57
2021/05/29 04:09:30;;;;;;;8.85;4.03;;;7.50;99.90;;;;;;5005270;28;20037;-58
2021/05/29 04:11:57;;;;;;;9.82;4.03;;;7.60;99.90;;;;;;5008948;28;20577;-58
2021/05/29 04:14:22;;;;;;;8.07;5.03;;;7.60;99.90;;;;;;5010861;28;20108;-56
2021/05/29 04:16:48;;;;;;;10.75;4.07;;;7.60;99.90;;;;;;5010035;28;20156;-55
2021/05/29 04:19:14;;;;;;;5.60;3.92;;;7.60;99.90;;;;;;5010474;28;20502;-59
2021/05/29 04:21:39;;;;;;;10.80;6.05;;;7.70;99.90;;;;;;5009090;28;20033;-58
2021/05/29 04:24:05;;;;;;;8.98;4.30;;;7.70;99.90;;;;;;5010019;28;20030;-59
2021/05/29 04:26:32;;;;;;;5.22;3.17;;;8.00;99.90;;;;;;5003931;28;20077;-57
2021/05/29 04:28:57;;;;;;;8.82;3.72;;;8.80;99.90;;;;;;4998545;28;20149;-58
2021/05/29 04:31:23;;;;;;;7.90;3.00;;;10.30;99.90;;;;;;5010408;28;20112;-59
2021/05/29 04:33:48;;;;;;;4.53;2.58;;;11.80;99.90;;;;;;5010208;28;20479;-59
2021/05/29 04:36:14;;;;;;;6.45;3.00;;;13.10;99.90;;;;;;5009784;28;20036;-60
2021/05/29 04:38:40;;;;;;;6.20;3.00;;;14.30;99.90;;;;;;5010253;28;20038;-57
2021/05/29 04:41:06;;;;;;;5.80;2.78;;;15.40;99.90;;;;;;5009924;28;20431;-55
2021/05/29 04:43:31;;;;;;;4.07;2.85;;;16.50;98.60;;;;;;5009628;28;20034;-60
2021/05/29 04:45:57;;;;;;;4.30;2.97;;;17.40;95.20;;;;;;5006739;28;20037;-57
2021/05/29 04:48:22;;;;;;;4.13;2.70;;;17.90;93.40;;;;;;5007632;28;20033;-58
2021/05/29 04:53:32;;;;;;;3.30;2.33;;;19.10;88.30;;;;;;5009934;28;20553;-59
2021/05/29 04:56:00;;;;;;;4.20;2.40;;;19.30;88.50;;;;;;5005166;28;20030;-59
2021/05/29 04:58:26;;;;;;;4.63;2.45;;;20.10;82.90;;;;;;5014631;28;20040;-59
2021/05/29 05:00:52;;;;;;;6.03;2.47;;;20.30;80.90;;;;;;5009634;28;20410;-58
2021/05/29 05:03:18;;;;;;;3.67;2.65;;;20.60;76.40;;;;;;5008829;28;20041;-60
2021/05/29 05:05:43;;;;;;;3.42;2.50;;;20.60;77.50;;;;;;5009497;28;20042;-59
2021/05/29 05:08:09;;;;;;;5.93;2.53;;;21.00;75.40;;;;;;5009166;28;20026;-59
2021/05/29 05:10:34;;;;;;;6.05;2.60;;;21.10;74.10;;;;;;5009422;28;20087;-59
2021/05/29 05:13:00;;;;;;;5.15;2.58;;;21.70;71.30;;;;;;5009737;28;20034;-58
2021/05/29 05:15:26;;;;;;;3.63;2.20;;;22.30;67.90;;;;;;5009547;28;20437;-58
2021/05/29 05:17:52;;;;;;;3.38;2.40;;;23.20;63.40;;;;;;5009864;28;20564;-59
2021/05/29 05:20:18;;;;;;;3.70;2.45;;;22.80;61.70;;;;;;5005418;28;20126;-59
2021/05/29 05:22:45;;;;;;;3.00;2.25;;;22.20;62.60;;;;;;5008553;28;20037;-58
2021/05/29 05:25:11;;;;;;;4.78;2.20;;;23.00;62.90;;;;;;5009284;28;20030;-52
2021/05/29 05:27:37;;;;;;;3.50;2.45;;;23.50;60.70;;;;;;5009735;28;20022;-58
2021/05/29 05:30:05;;;;;;;2.85;2.38;;;23.80;59.00;;;;;;5009174;28;20049;-59
2021/05/29 05:32:31;;;;;;;3.03;1.80;;;23.00;60.10;;;;;;4978856;28;20038;-60
2021/05/29 05:34:57;;;;;;;3.28;2.42;;;23.40;60.90;;;;;;5007089;28;20029;-59
2021/05/29 05:37:22;;;;;;;2.53;2.20;;;24.10;58.60;;;;;;5011926;28;20034;-60
2021/05/29 05:39:48;;;;;;;7.68;2.85;;;25.40;56.40;;;;;;5005706;28;20510;-58
2021/05/29 05:42:13;;;;;;;4.95;2.92;;;25.80;53.50;;;;;;5012345;28;20037;-60
2021/05/29 05:44:39;;;;;;;4.75;2.53;;;25.80;52.40;;;;;;5012624;28;20029;-58
2021/05/29 05:47:04;;;;;;;4.15;2.30;;;25.40;52.70;;;;;;5011224;28;20036;-60
2021/05/29 05:49:30;;;;;;;3.97;2.05;;;25.40;53.00;;;;;;5012557;28;20054;-58
2021/05/29 05:51:55;;;;;;;5.32;2.50;;;25.10;53.40;;;;;;5011885;28;20072;-57
2021/05/29 05:54:21;;;;;;;3.97;2.05;;;25.00;53.60;;;;;;5009779;28;20034;-59
2021/05/29 05:56:47;;;;;;;6.55;4.40;;;25.10;54.00;;;;;;5010365;28;20030;-60
2021/05/29 05:59:12;;;;;;;7.65;3.20;;;25.40;52.80;;;;;;5015960;28;20026;-59
2021/05/29 06:01:40;;;;;;;3.85;2.30;;;25.90;52.70;;;;;;5011229;28;20032;-60
2021/05/29 06:04:06;;;;;;;8.43;2.40;;;25.10;52.20;;;;;;5012300;28;20034;-61
2021/05/29 06:06:32;;;;;;;4.03;2.10;;;24.80;53.00;;;;;;5006261;28;20021;-59
2021/05/29 06:08:57;;;;;;;3.55;2.75;;;25.50;52.30;;;;;;5009457;28;20033;-61
2021/05/29 06:11:23;;;;;;;4.00;1.90;;;25.80;51.50;;;;;;5009614;28;20041;-60
2021/05/29 06:19:11;;;;;;;3.13;2.00;;;26.40;49.30;;;;;;5006413;28;20517;-57
2021/05/29 06:21:45;;;;;;;9.45;2.28;;;27.80;49.20;;;;;;5011612;28;20097;-60
2021/05/29 06:24:12;;;;;;;9.30;1.90;;;28.00;48.20;;;;;;5010667;28;20026;-58
2021/05/29 06:26:38;;;;;;;2.70;1.90;;;28.00;47.10;;;;;;5009038;28;20035;-60
2021/05/29 06:29:04;;;;;;;3.55;1.90;;;28.10;47.90;;;;;;5011817;28;20044;-60
2021/05/29 06:31:30;;;;;;;2.08;1.60;;;28.90;46.10;;;;;;5011174;28;20025;-58
2021/05/29 06:33:56;;;;;;;3.15;1.65;;;29.70;44.10;;;;;;5001597;28;20457;-59
2021/05/29 06:36:21;;;;;;;5.47;1.92;;;30.00;43.10;;;;;;5014557;28;20025;-58
2021/05/29 06:38:47;;;;;;;6.70;1.70;;;28.40;44.20;;;;;;5011126;28;20017;-58
2021/05/29 06:41:13;;;;;;;2.47;1.80;;;27.60;44.50;;;;;;5013364;28;20030;-57
2021/05/29 06:43:39;;;;;;;3.33;1.73;;;28.20;46.40;;;;;;5014602;28;20061;-58
2021/05/29 06:46:04;;;;;;;3.92;1.75;;;28.40;44.80;;;;;;5019900;28;20033;-58
2021/05/29 06:48:30;;;;;;;2.65;1.58;;;28.70;43.80;;;;;;5021729;28;20515;-57
2021/05/29 06:50:57;;;;;;;1.75;1.63;;;28.40;44.40;;;;;;5009170;28;20104;-58
2021/05/29 06:53:28;;;;;;;1.48;1.20;;;27.60;44.50;;;;;;5013864;28;20091;-56
2021/05/29 06:58:49;;;;;;;3.20;1.70;;;28.10;44.00;;;;;;5014641;28;20100;-58
2021/05/29 07:01:17;;;;;;;4.47;1.75;;;29.10;42.40;;;;;;5010623;28;20536;-60
2021/05/29 07:03:45;;;;;;;2.63;1.77;;;29.30;43.70;;;;;;5021168;28;20087;-59
2021/05/29 07:06:11;;;;;;;2.22;1.45;;;29.30;41.70;;;;;;5019623;28;20034;-59
2021/05/29 07:08:37;;;;;;;2.05;1.60;;;30.20;41.40;;;;;;5019394;28;20034;-60
2021/05/29 07:11:03;;;;;;;2.38;1.27;;;29.60;41.90;;;;;;5019892;28;20460;-59
2021/05/29 07:13:29;;;;;;;3.30;1.55;;;28.40;42.40;;;;;;5018381;28;20405;-60
2021/05/29 07:15:55;;;;;;;2.92;1.58;;;29.80;42.20;;;;;;5020090;28;20026;-59
2021/05/29 07:18:23;;;;;;;2.22;1.70;;;29.60;42.40;;;;;;5007524;28;20027;-59
2021/05/29 07:20:49;;;;;;;3.47;1.92;;;30.90;41.00;;;;;;5019002;28;20041;-58
2021/05/29 07:23:14;;;;;;;4.10;1.70;;;29.80;41.60;;;;;;5019567;28;20150;-59
2021/05/29 07:25:41;;;;;;;4.45;1.63;;;29.10;41.90;;;;;;5019887;28;20663;-58
2021/05/29 07:28:06;;;;;;;4.00;1.90;;;28.10;44.40;;;;;;5021501;28;20026;-60
2021/05/29 07:30:32;;;;;;;4.22;2.53;;;28.30;46.00;;;;;;5018570;28;20683;-59
2021/05/29 07:32:58;;;;;;;1.70;1.50;;;30.20;42.80;;;;;;4991749;28;20136;-59
2021/05/29 07:35:24;;;;;;;2.38;1.80;;;29.50;42.70;;;;;;5014975;28;20426;-60
2021/05/29 07:37:49;;;;;;;2.85;1.70;;;29.00;42.70;;;;;;5010636;28;20049;-60
2021/05/29 07:40:15;;;;;;;2.13;1.70;;;28.70;40.20;;;;;;5018202;28;20030;-59
2021/05/29 07:42:41;;;;;;;2.13;1.80;;;29.10;40.40;;;;;;5017437;28;20057;-59
2021/05/29 07:45:08;;;;;;;1.90;1.38;;;29.40;41.80;;;;;;5024361;28;20030;-58
2021/05/29 07:47:34;;;;;;;2.70;1.50;;;28.80;41.30;;;;;;5010959;28;20042;-59
2021/05/29 07:50:00;;;;;;;1.88;1.30;;;29.10;41.00;;;;;;5018277;28;20026;-59
2021/05/29 07:52:25;;;;;;;2.65;1.50;;;28.10;40.60;;;;;;5018406;28;20035;-60
2021/05/29 07:54:51;;;;;;;2.17;1.73;;;27.60;41.60;;;;;;5020204;28;20420;-60
2021/05/29 07:57:16;;;;;;;3.00;1.50;;;28.10;43.20;;;;;;5006210;28;20060;-60
2021/05/29 07:59:43;;;;;;;2.28;1.55;;;28.80;41.80;;;;;;5007424;28;20560;-56
2021/05/29 08:02:09;;;;;;;1.83;1.33;;;29.70;38.40;;;;;;5004670;28;20072;-56
2021/05/29 08:04:35;;;;;;;2.92;1.48;;;28.70;39.00;;;;;;5000004;28;20027;-59
2021/05/29 08:07:01;;;;;;;2.30;1.50;;;29.40;38.00;;;;;;5003619;28;20408;-59
2021/05/29 08:09:27;;;;;;;2.38;1.10;;;29.60;38.20;;;;;;5002598;28;20041;-58
2021/05/29 08:11:52;;;;;;;1.63;1.33;;;29.20;37.80;;;;;;5007859;28;20037;-57
2021/05/29 08:14:18;;;;;;;2.10;1.35;;;30.70;36.80;;;;;;5002690;28;20030;-58
2021/05/29 08:16:44;;;;;;;2.35;1.10;;;30.50;36.90;;;;;;5008347;28;20044;-59
2021/05/29 08:19:13;;;;;;;2.75;1.40;;;30.60;36.00;;;;;;5015015;28;20024;-57
2021/05/29 08:21:40;;;;;;;1.42;1.33;;;30.00;37.30;;;;;;5001626;28;20107;-58
2021/05/29 08:24:07;;;;;;;2.50;1.60;;;29.70;38.40;;;;;;5010706;28;20029;-57
2021/05/29 08:26:34;;;;;;;2.42;1.70;;;29.50;39.00;;;;;;5011997;28;20029;-58
2021/05/29 08:28:59;;;;;;;2.80;1.55;;;30.40;39.40;;;;;;5008527;28;20522;-59
2021/05/29 08:31:25;;;;;;;3.65;1.33;;;29.70;38.60;;;;;;5012714;28;20112;-58
2021/05/29 08:33:50;;;;;;;2.13;1.40;;;28.80;39.30;;;;;;5000604;28;20184;-59
2021/05/29 08:36:16;;;;;;;1.50;1.20;;;28.20;39.70;;;;;;5013553;28;20026;-57
2021/05/29 08:38:44;;;;;;;2.50;1.50;;;29.40;38.80;;;;;;5008727;28;20116;-56
2021/05/29 08:41:11;;;;;;;2.45;1.60;;;28.80;38.20;;;;;;5003696;28;20447;-57
2021/05/29 08:43:36;;;;;;;3.00;1.35;;;29.60;40.00;;;;;;5012733;28;20168;-60
2021/05/29 08:46:03;;;;;;;4.53;1.30;;;30.70;37.30;;;;;;5015583;28;20116;-57
2021/05/29 08:48:29;;;;;;;2.15;1.48;;;28.40;39.00;;;;;;5014084;28;20045;-58
2021/05/29 08:51:13;;;;;;;2.00;1.25;;;27.10;40.10;;;;;;5009688;28;20407;-58
2021/05/29 08:53:43;;;;;;;2.30;1.23;;;26.40;42.70;;;;;;5006053;28;20050;-59
2021/05/29 08:56:09;;;;;;;1.90;1.33;;;26.70;42.90;;;;;;5014285;28;20166;-58
2021/05/29 08:58:34;;;;;;;3.05;1.55;;;25.70;43.50;;;;;;5014618;28;20487;-58
2021/05/29 09:01:02;;;;;;;5.53;1.15;;;24.80;45.90;;;;;;5007287;28;20087;-58
2021/05/29 09:03:51;;;;;;;2.47;1.30;;;25.90;45.30;;;;;;5004387;28;20132;-59
2021/05/29 09:06:40;;;;;;;2.35;1.40;;;25.60;42.10;;;;;;5002982;28;20042;-58
2021/05/29 09:09:09;;;;;;;2.53;1.30;;;25.00;43.20;;;;;;5007954;28;20026;-58
2021/05/29 09:11:52;;;;;;;2.55;1.40;;;24.20;45.40;;;;;;5015147;28;20017;-58
2021/05/29 09:14:36;;;;;;;2.90;1.60;;;23.30;47.40;;;;;;5010145;28;20045;-58
2021/05/29 09:17:02;;;;;;;2.80;1.33;;;22.40;49.90;;;;;;5002076;28;20038;-58
2021/05/29 09:19:28;;;;;;;2.78;1.55;;;23.10;50.20;;;;;;5013917;28;20548;-54
2021/05/29 09:21:54;;;;;;;2.22;1.35;;;23.30;48.40;;;;;;5012662;28;20495;-60
2021/05/29 09:24:19;;;;;;;2.55;1.10;;;23.80;48.50;;;;;;5019327;28;20068;-59
2021/05/29 09:26:49;;;;;;;1.33;1.05;;;24.10;46.10;;;;;;5020752;28;20105;-56
2021/05/29 09:29:24;;;;;;;2.80;1.20;;;24.20;45.80;;;;;;5026084;28;20025;-58
2021/05/29 09:31:50;;;;;;;3.95;1.23;;;24.10;45.70;;;;;;5015935;28;20022;-55
2021/05/29 09:34:53;;;;;;;5.80;1.27;;;23.20;49.80;;;;;;5007908;28;20521;-57
2021/05/29 09:37:26;;;;;;;3.25;1.73;;;22.40;49.60;;;;;;5011471;28;20032;-57
2021/05/29 09:39:56;;;;;;;2.85;1.90;;;22.20;49.70;;;;;;5024728;28;20041;-60
2021/05/29 09:42:30;;;;;;;3.30;1.95;;;21.80;50.20;;;;;;5011678;28;20104;-52
2021/05/29 09:44:56;;;;;;;4.85;1.55;;;21.10;53.60;;;;;;5021855;28;20039;-55
2021/05/29 09:47:26;;;;;;;2.17;1.20;;;21.40;52.60;;;;;;5011605;28;20125;-57
2021/05/29 09:49:56;;;;;;;2.25;1.40;;;22.60;49.90;;;;;;5019789;28;20034;-56
2021/05/29 09:52:31;;;;;;;2.60;1.50;;;23.40;48.90;;;;;;5017510;28;20083;-56
2021/05/29 09:55:05;;;;;;;1.95;1.35;;;22.90;46.30;;;;;;5021275;28;20437;-55
2021/05/29 09:57:31;;;;;;;2.47;1.52;;;22.40;48.00;;;;;;5014830;28;20038;-60
2021/05/29 09:59:57;;;;;;;2.65;1.60;;;21.80;50.20;;;;;;5009889;28;20578;-59
2021/05/29 10:02:23;;;;;;;1.45;1.20;;;21.40;51.30;;;;;;5014975;28;20034;-60
2021/05/29 10:04:54;;;;;;;3.72;1.83;;;21.50;53.10;;;;;;5013702;28;20089;-60
2021/05/29 10:07:20;;;;;;;2.13;1.38;;;21.50;51.20;;;;;;5014716;28;20048;-60
2021/05/29 10:09:46;;;;;;;3.20;1.90;;;21.10;51.60;;;;;;5015452;28;20419;-59
2021/05/29 10:12:12;;;;;;;3.97;1.98;;;20.80;52.40;;;;;;5015880;28;20104;-58
2021/05/29 10:14:38;;;;;;;3.05;1.83;;;20.90;54.50;;;;;;5022132;28;20022;-58
2021/05/29 10:17:10;;;;;;;2.60;1.65;;;21.40;52.70;;;;;;5016038;28;20029;-58
2021/05/29 10:19:38;;;;;;;5.00;2.10;;;21.70;50.90;;;;;;5007932;28;20061;-60
2021/05/29 10:22:11;;;;;;;3.13;2.13;;;22.00;50.00;;;;;;4985060;28;20036;-59
2021/05/29 10:24:38;;;;;;;3.15;1.58;;;22.20;51.20;;;;;;5016679;28;20447;-60
2021/05/29 10:27:10;;;;;;;3.15;2.30;;;22.60;49.30;;;;;;5019914;28;20427;-60
2021/05/29 10:29:36;;;;;;;5.43;2.20;;;22.20;50.90;;;;;;5021800;28;20029;-60
2021/05/29 10:32:31;;;;;;;3.97;2.35;;;22.30;49.60;;;;;;5025511;28;20418;-57
2021/05/29 10:35:10;;;;;;;3.00;1.73;;;21.90;48.20;;;;;;4986237;28;20062;-60
2021/05/29 10:37:41;;;;;;;3.20;1.95;;;22.30;49.40;;;;;;5015723;28;20038;-60
2021/05/29 10:40:17;;;;;;;2.55;1.92;;;21.90;52.20;;;;;;4994789;28;20030;-59
2021/05/29 10:42:44;;;;;;;3.05;1.63;;;21.40;52.80;;;;;;4990899;28;20038;-60
2021/05/29 10:45:13;;;;;;;5.70;1.85;;;21.40;54.00;;;;;;4994170;28;20446;-59
2021/05/29 10:48:00;;;;;;;6.45;2.85;;;21.00;54.60;;;;;;4995425;28;20042;-61
2021/05/29 10:50:44;;;;;;;2.67;2.03;;;21.60;56.10;;;;;;4998366;28;20058;-59
2021/05/29 10:53:10;;;;;;;3.25;2.20;;;21.80;51.90;;;;;;4991084;28;20047;-60
2021/05/29 10:55:35;;;;;;;4.05;2.17;;;21.40;52.50;;;;;;4997811;28;20058;-58
2021/05/29 10:58:05;;;;;;;2.20;1.98;;;21.10;54.10;;;;;;4997175;28;20554;-59
2021/05/29 11:00:40;;;;;;;3.80;1.85;;;21.00;55.10;;;;;;4992596;28;20307;-60
2021/05/29 11:03:18;;;;;;;6.28;1.98;;;20.80;56.60;;;;;;4991388;28;20037;-59
2021/05/29 11:05:49;;;;;;;2.67;1.90;;;21.30;52.70;;;;;;5001597;28;20114;-60
2021/05/29 11:08:49;;;;;;;2.20;1.90;;;21.30;49.80;;;;;;5002168;28;20109;-59
2021/05/29 11:11:37;;;;;;;2.53;1.70;;;21.70;50.60;;;;;;4994808;28;20030;-58
2021/05/29 11:14:07;;;;;;;4.85;2.40;;;22.20;51.40;;;;;;4988713;28;20033;-59
2021/05/29 11:16:52;;;;;;;3.40;2.42;;;22.40;50.40;;;;;;4990559;28;20035;-60
2021/05/29 11:19:19;;;;;;;7.68;2.78;;;22.30;51.40;;;;;;5003392;28;20034;-54
2021/05/29 11:22:17;;;;;;;2.75;2.03;;;21.90;51.40;;;;;;4998587;28;20077;-57
2021/05/29 11:24:49;;;;;;;5.28;1.95;;;21.30;52.90;;;;;;4992808;28;20014;-57
2021/05/29 11:27:19;;;;;;;5.25;2.10;;;21.30;54.30;;;;;;4992262;28;20037;-54
2021/05/29 11:30:00;;;;;;;5.13;1.80;;;21.40;52.00;;;;;;5004113;28;20022;-54
2021/05/29 11:35:35;;;;;;;3.90;2.03;;;21.30;53.40;;;;;;4996841;28;20165;-53
2021/05/29 11:38:03;;;;;;;3.17;2.20;;;21.10;54.30;;;;;;4987374;28;20034;-57
2021/05/29 11:40:58;;;;;;;3.38;2.10;;;20.80;55.40;;;;;;4988196;28;20381;-56
2021/05/29 11:43:35;;;;;;;4.97;2.47;;;20.40;55.20;;;;;;4997978;28;20033;-57
2021/05/29 11:46:02;;;;;;;3.78;1.95;;;20.30;55.50;;;;;;4987598;28;20026;-56
2021/05/29 11:48:42;;;;;;;4.70;2.28;;;20.20;56.60;;;;;;4991619;28;20038;-57
2021/05/29 11:54:06;;;;;;;3.05;2.17;;;20.60;54.30;;;;;;4987711;28;20480;-60
2021/05/29 11:56:34;;;;;;;4.28;2.10;;;21.00;54.10;;;;;;4997627;28;20101;-59
2021/05/29 11:59:01;;;;;;;5.00;2.30;;;21.10;53.00;;;;;;4996767;28;20113;-57
2021/05/29 12:01:34;;;;;;;3.95;2.60;;;20.90;51.40;;;;;;4993515;28;20898;-55
2021/05/29 12:04:11;;;;;;;5.72;2.22;;;20.80;53.10;;;;;;4989825;28;20033;-54
2021/05/29 12:07:03;;;;;;;3.40;2.55;;;20.70;52.30;;;;;;4991399;28;20117;-55
2021/05/29 12:09:30;;;;;;;3.50;2.90;;;20.80;57.10;;;;;;4994599;28;20588;-59
2021/05/29 12:11:58;;;;;;;3.40;2.65;;;20.80;55.60;;;;;;4995620;28;20034;-58
2021/05/29 12:14:33;;;;;;;4.70;3.30;;;21.00;55.90;;;;;;4995085;28;20038;-59
2021/05/29 12:17:02;;;;;;;3.45;2.45;;;20.80;53.70;;;;;;4986167;28;20034;-59
2021/05/29 12:19:38;;;;;;;6.75;3.05;;;20.80;53.30;;;;;;4989030;28;20038;-57
2021/05/29 12:22:35;;;;;;;5.68;2.72;;;20.60;53.00;;;;;;4989621;28;20695;-58
2021/05/29 12:25:07;;;;;;;5.00;3.80;;;20.50;54.90;;;;;;4984591;28;20034;-58
2021/05/29 12:27:44;;;;;;;7.03;3.38;;;20.10;55.90;;;;;;4989190;28;20026;-59
2021/05/29 12:30:13;;;;;;;6.32;3.40;;;20.00;56.00;;;;;;4985501;28;20472;-57
2021/05/29 12:32:43;;;;;;;6.68;3.20;;;20.30;56.80;;;;;;4971413;28;20033;-57
2021/05/29 12:35:31;;;;;;;4.72;3.33;;;20.50;55.20;;;;;;4985891;28;20033;-57
2021/05/29 12:38:13;;;;;;;4.90;4.25;;;20.60;55.60;;;;;;4982338;28;20030;-55
2021/05/29 12:40:51;;;;;;;10.25;3.38;;;20.60;53.00;;;;;;4977868;28;20026;-58
2021/05/29 12:43:17;;;;;;;5.75;4.53;;;20.90;54.00;;;;;;4981427;28;20043;-56
2021/05/29 12:45:42;;;;;;;7.53;4.47;;;20.80;53.80;;;;;;4990542;28;20027;-57
2021/05/29 12:48:11;;;;;;;9.50;4.90;;;20.60;55.80;;;;;;4987342;28;20019;-57
2021/05/29 12:50:59;;;;;;;5.43;4.18;;;20.50;54.80;;;;;;4987899;28;20027;-58
2021/05/29 12:53:26;;;;;;;7.15;6.35;;;20.40;53.60;;;;;;4984265;28;20038;-57
2021/05/29 12:56:07;;;;;;;9.77;6.32;;;20.30;54.70;;;;;;4987678;28;20705;-59
2021/05/29 12:58:32;;;;;;;5.72;5.00;;;20.40;56.40;;;;;;4988282;28;20570;-59
2021/05/29 13:09:29;;;;;;;9.48;5.45;;;20.20;57.10;;;;;;4987951;28;20084;-59
2021/05/29 13:11:55;;;;;;;5.90;5.28;;;20.40;57.60;;;;;;4990493;28;20049;-59
2021/05/29 13:14:31;;;;;;;10.48;5.10;;;20.40;56.00;;;;;;4997556;28;20062;-59
2021/05/29 13:16:58;;;;;;;11.35;5.60;;;20.40;55.30;;;;;;4993239;28;20018;-57
2021/05/29 13:19:26;;;;;;;6.05;5.35;;;20.40;56.10;;;;;;5000911;28;20037;-57
2021/05/29 13:22:00;;;;;;;7.15;5.53;;;20.40;55.60;;;;;;4994226;28;20523;-55
2021/05/29 13:24:45;;;;;;;7.22;4.38;;;20.30;55.90;;;;;;4994381;28;20077;-57